Time;durP1;ratioP1;P1;durP2;ratioP2;P2;SDS_P1;SDS_P2;PMS_P1;PMS_P2;Temp;Humidity;BMP_temperature;BMP_pressure;BME280_temperature;BME280_humidity;BME280_pressure;Samples;Min_cycle;Max_cycle;Signal;HPM_P1;HPM_P2
2024/01/26 00:00:33;;;;;;;2.20;1.90;;;;;;;3.17;100.00;99182.77;86532;276;136051;-72
2024/01/26 00:02:35;;;;;;;1.80;1.60;;;;;;;3.24;100.00;99182.89;86787;269;22577;-71
2024/01/26 00:04:37;;;;;;;1.70;1.60;;;;;;;3.24;100.00;99186.93;86165;287;136040;-71
2024/01/26 00:06:39;;;;;;;1.90;1.60;;;;;;;3.21;100.00;99188.95;86589;285;22594;-71
2024/01/26 00:08:44;;;;;;;2.60;1.90;;;;;;;3.17;100.00;99191.92;85876;282;848368;-71
2024/01/26 00:10:46;;;;;;;1.60;1.30;;;;;;;3.14;100.00;99194.16;86677;284;25551;-71
2024/01/26 00:12:48;;;;;;;2.50;1.70;;;;;;;3.11;100.00;99196.38;86682;273;135734;-71
2024/01/26 00:14:50;;;;;;;3.60;2.00;;;;;;;3.08;100.00;99199.55;86647;280;25259;-73
2024/01/26 00:16:52;;;;;;;2.70;1.50;;;;;;;3.02;100.00;99199.20;86674;275;135482;-72
2024/01/26 00:18:54;;;;;;;0.80;0.80;;;;;;;3.04;100.00;99201.79;87221;283;25252;-72
2024/01/26 00:20:56;;;;;;;1.80;1.20;;;;;;;3.09;100.00;99203.86;86478;277;135937;-71
2024/01/26 00:22:58;;;;;;;1.50;0.90;;;;;;;3.11;100.00;99205.33;86693;275;25941;-71
2024/01/26 00:25:00;;;;;;;1.00;1.00;;;;;;;3.10;100.00;99204.08;86544;283;135566;-72
2024/01/26 00:27:02;;;;;;;3.70;1.60;;;;;;;3.07;100.00;99202.42;86891;282;25128;-70
2024/01/26 00:29:04;;;;;;;2.50;1.40;;;;;;;3.00;100.00;99201.49;87612;278;135809;-71
2024/01/26 00:31:06;;;;;;;1.70;1.50;;;;;;;2.93;100.00;99207.80;86905;267;22648;-69
2024/01/26 00:33:08;;;;;;;1.30;1.20;;;;;;;2.88;100.00;99200.10;86837;275;136610;-70
2024/01/26 00:35:10;;;;;;;1.40;1.40;;;;;;;2.83;100.00;99204.02;86634;284;25206;-70
2024/01/26 00:37:12;;;;;;;2.20;1.20;;;;;;;2.83;100.00;99205.41;86684;279;136260;-71
2024/01/26 00:39:13;;;;;;;1.10;0.90;;;;;;;2.87;100.00;99208.27;86783;282;22531;-71
2024/01/26 00:41:15;;;;;;;2.50;1.20;;;;;;;2.91;100.00;99207.83;86682;275;137276;-70
2024/01/26 00:43:18;;;;;;;1.50;1.40;;;;;;;2.96;100.00;99206.13;86864;270;25176;-71
2024/01/26 00:45:20;;;;;;;1.10;1.00;;;;;;;2.94;100.00;99207.52;86834;281;136253;-71
2024/01/26 00:47:22;;;;;;;1.30;1.20;;;;;;;2.90;100.00;99206.52;87224;281;25330;-70
2024/01/26 00:49:24;;;;;;;1.60;1.10;;;;;;;2.87;100.00;99207.77;87186;282;135331;-71
2024/01/26 00:51:42;;;;;;;1.10;1.00;;;;;;;2.85;100.00;99209.73;86884;276;25131;-71
2024/01/26 00:53:44;;;;;;;1.20;1.00;;;;;;;2.85;100.00;99216.09;86984;282;135530;-70
2024/01/26 00:55:46;;;;;;;2.30;1.20;;;;;;;2.89;100.00;99213.49;87290;279;22547;-70
2024/01/26 00:57:48;;;;;;;1.00;0.90;;;;;;;2.99;100.00;99211.98;87047;275;137552;-70
2024/01/26 00:59:50;;;;;;;2.00;1.10;;;;;;;3.05;100.00;99217.10;87110;271;26006;-70
2024/01/26 01:01:52;;;;;;;0.70;0.70;;;;;;;3.05;100.00;99211.93;87054;275;135891;-71
2024/01/26 01:03:56;;;;;;;0.70;0.70;;;;;;;3.03;100.00;99211.00;87434;271;25297;-71
2024/01/26 01:05:57;;;;;;;1.40;0.60;;;;;;;2.99;100.00;99211.77;86988;271;136485;-70
2024/01/26 01:07:59;;;;;;;1.20;1.10;;;;;;;2.93;100.00;99216.95;86984;271;26185;-71
2024/01/26 01:10:01;;;;;;;0.90;0.80;;;;;;;2.90;100.00;99220.80;86834;271;135600;-69
2024/01/26 01:12:04;;;;;;;0.90;0.90;;;;;;;2.87;100.00;99220.27;86770;279;135857;-68
2024/01/26 01:14:08;;;;;;;1.40;1.10;;;;;;;2.90;100.00;99223.06;87120;279;22560;-70
2024/01/26 01:16:12;;;;;;;1.50;1.40;;;;;;;2.98;100.00;99227.87;86603;279;138043;-71
2024/01/26 01:18:15;;;;;;;1.40;1.00;;;;;;;3.04;100.00;99228.73;86772;280;22848;-72
2024/01/26 01:20:17;;;;;;;4.00;1.20;;;;;;;3.09;100.00;99226.35;87810;274;136171;-72
2024/01/26 01:22:19;;;;;;;1.00;0.70;;;;;;;3.07;100.00;99224.80;86821;279;24924;-71
2024/01/26 01:24:21;;;;;;;1.30;1.00;;;;;;;3.03;100.00;99229.96;86654;276;135635;-72
2024/01/26 01:26:22;;;;;;;2.30;1.30;;;;;;;2.98;100.00;99230.00;86895;273;22587;-71
2024/01/26 01:28:24;;;;;;;0.80;0.80;;;;;;;2.92;100.00;99232.84;86850;274;137094;-72
2024/01/26 01:30:26;;;;;;;1.10;0.80;;;;;;;2.88;100.00;99235.55;86839;270;25227;-71
2024/01/26 01:32:29;;;;;;;1.10;0.90;;;;;;;2.85;100.00;99233.04;86786;274;136518;-70
2024/01/26 01:34:31;;;;;;;0.80;0.80;;;;;;;2.87;100.00;99232.89;88097;277;25076;-72
2024/01/26 01:36:33;;;;;;;0.80;0.50;;;;;;;2.91;100.00;99234.13;86906;280;136321;-70
2024/01/26 01:38:35;;;;;;;0.80;0.70;;;;;;;2.95;100.00;99232.89;86976;269;25304;-70
2024/01/26 01:40:36;;;;;;;0.70;0.60;;;;;;;2.95;100.00;99233.92;86846;281;136003;-69
2024/01/26 01:42:38;;;;;;;0.70;0.60;;;;;;;2.92;100.00;99236.36;86797;274;25201;-71
2024/01/26 01:44:42;;;;;;;0.80;0.80;;;;;;;2.80;100.00;99240.64;87417;274;136172;-70
2024/01/26 01:46:44;;;;;;;1.30;1.20;;;;;;;2.72;100.00;99240.61;86775;278;22542;-70
2024/01/26 01:48:45;;;;;;;1.20;0.70;;;;;;;2.66;100.00;99240.05;86685;269;137824;-71
2024/01/26 01:50:49;;;;;;;1.30;1.10;;;;;;;2.62;100.00;99246.27;87142;273;22565;-70
2024/01/26 01:52:53;;;;;;;0.80;0.80;;;;;;;2.65;100.00;99245.61;86723;273;136998;-71
2024/01/26 01:54:59;;;;;;;0.80;0.80;;;;;;;2.72;100.00;99249.79;86842;280;22620;-68
2024/01/26 01:57:04;;;;;;;0.90;0.80;;;;;;;2.77;100.00;99248.17;87292;273;137676;-70
2024/01/26 01:59:08;;;;;;;3.50;1.40;;;;;;;2.79;100.00;99252.75;87498;273;22558;-70
2024/01/26 02:01:10;;;;;;;0.90;0.90;;;;;;;2.75;100.00;99255.60;86798;281;135894;-70
2024/01/26 02:03:12;;;;;;;1.40;1.30;;;;;;;2.70;100.00;99257.13;86918;273;22568;-70
2024/01/26 02:05:16;;;;;;;1.90;1.40;;;;;;;2.66;100.00;99258.67;86826;272;136523;-70
2024/01/26 02:07:18;;;;;;;1.30;1.20;;;;;;;2.65;100.00;99261.52;87284;272;22571;-70
2024/01/26 02:09:20;;;;;;;1.20;1.10;;;;;;;2.65;100.00;99263.27;86811;272;135678;-69
2024/01/26 02:11:23;;;;;;;0.90;0.80;;;;;;;2.70;100.00;99265.41;86909;273;26422;-70
2024/01/26 02:13:24;;;;;;;1.70;1.60;;;;;;;2.80;100.00;99269.30;86779;273;136572;-71
2024/01/26 02:15:27;;;;;;;2.40;1.50;;;;;;;2.84;100.00;99271.75;86925;280;22611;-70
2024/01/26 02:17:33;;;;;;;1.80;0.80;;;;;;;2.84;100.00;99275.55;86820;271;135939;-72
2024/01/26 02:19:35;;;;;;;5.00;2.10;;;;;;;2.78;100.00;99277.21;87496;272;25082;-71
2024/01/26 02:21:37;;;;;;;1.40;1.30;;;;;;;2.70;100.00;99276.44;86783;268;136490;-70
2024/01/26 02:23:41;;;;;;;3.20;1.40;;;;;;;2.61;100.00;99275.27;86970;273;22615;-70
2024/01/26 02:25:44;;;;;;;1.30;1.20;;;;;;;2.51;100.00;99277.02;87261;276;138248;-71
2024/01/26 02:27:46;;;;;;;1.40;1.30;;;;;;;2.49;100.00;99276.33;86849;273;22579;-70
2024/01/26 02:29:49;;;;;;;2.40;1.50;;;;;;;2.52;100.00;99282.53;86800;272;136977;-71
2024/01/26 02:31:51;;;;;;;2.00;1.70;;;;;;;2.54;100.00;99285.33;86957;277;26297;-72
2024/01/26 02:33:53;;;;;;;1.90;1.80;;;;;;;2.52;100.00;99282.23;86680;277;135672;-70
2024/01/26 02:35:55;;;;;;;3.30;1.80;;;;;;;2.48;100.00;99288.63;86856;281;24881;-69
2024/01/26 02:37:57;;;;;;;2.20;2.00;;;;;;;2.44;100.00;99288.86;86834;273;135585;-71
2024/01/26 02:39:59;;;;;;;2.90;2.10;;;;;;;2.40;100.00;99288.88;87160;269;23330;-70
2024/01/26 02:42:01;;;;;;;2.90;2.40;;;;;;;2.37;100.00;99285.03;86976;269;135524;-69
2024/01/26 02:44:03;;;;;;;2.80;2.60;;;;;;;2.34;100.00;99286.21;86969;281;137275;-66
2024/01/26 02:46:10;;;;;;;2.30;1.50;;;;;;;2.40;100.00;99287.66;87074;276;22522;-72
2024/01/26 02:48:12;;;;;;;3.10;2.40;;;;;;;2.49;100.00;99288.96;87003;273;137834;-72
2024/01/26 02:50:14;;;;;;;2.30;1.50;;;;;;;2.54;100.00;99290.91;87046;281;24065;-74
2024/01/26 02:52:16;;;;;;;4.60;2.50;;;;;;;2.55;100.00;99291.15;86914;273;136517;-73
2024/01/26 02:54:18;;;;;;;2.30;1.90;;;;;;;2.51;100.00;99294.00;86984;270;25346;-71
2024/01/26 02:56:23;;;;;;;;;;;;;;;2.47;100.00;99300.58;87196;278;137028;-72
2024/01/26 02:58:25;;;;;;;4.60;2.30;;;;;;;2.44;100.00;99300.92;87307;267;23805;-73
2024/01/26 03:00:27;;;;;;;3.60;3.30;;;;;;;2.40;100.00;99302.56;87245;278;135744;-70
2024/01/26 03:02:28;;;;;;;3.20;2.20;;;;;;;2.37;100.00;99299.73;87279;266;22630;-70
2024/01/26 03:04:30;;;;;;;3.40;2.70;;;;;;;2.41;100.00;99303.67;87133;278;137517;-73
2024/01/26 03:06:32;;;;;;;1.70;1.60;;;;;;;2.51;100.00;99303.50;87252;278;23715;-70
2024/01/26 03:08:34;;;;;;;2.00;1.90;;;;;;;2.59;100.00;99306.36;87308;278;136567;-71
2024/01/26 03:10:36;;;;;;;6.60;2.00;;;;;;;2.59;100.00;99305.40;88111;274;22651;-71
2024/01/26 03:12:38;;;;;;;2.50;1.60;;;;;;;2.50;100.00;99305.53;87751;271;136131;-71
2024/01/26 03:14:39;;;;;;;1.90;1.80;;;;;;;2.45;100.00;99305.55;87208;275;22570;-71
2024/01/26 03:16:42;;;;;;;1.80;1.60;;;;;;;2.37;100.00;99301.44;87178;270;136880;-71
2024/01/26 03:18:44;;;;;;;3.00;2.80;;;;;;;2.29;100.00;99303.73;87414;273;25220;-72
2024/01/26 03:20:46;;;;;;;1.80;1.70;;;;;;;2.31;100.00;99306.15;87240;262;136573;-71
2024/01/26 03:22:48;;;;;;;1.90;1.80;;;;;;;2.36;100.00;99313.77;87340;277;22564;-72
2024/01/26 03:24:49;;;;;;;1.90;1.40;;;;;;;2.37;100.00;99319.18;87272;266;137881;-72
2024/01/26 03:26:51;;;;;;;1.30;1.20;;;;;;;2.34;100.00;99321.22;87286;261;22578;-73
2024/01/26 03:28:53;;;;;;;1.80;1.70;;;;;;;2.26;100.00;99323.56;87195;273;135814;-73
2024/01/26 03:30:55;;;;;;;1.90;1.80;;;;;;;2.16;100.00;99326.98;87106;272;24075;-73
2024/01/26 03:32:57;;;;;;;1.90;1.30;;;;;;;2.08;100.00;99326.20;87278;270;135853;-73
2024/01/26 03:34:59;;;;;;;1.80;1.70;;;;;;;2.06;100.00;99326.90;87405;271;22590;-72
2024/01/26 03:37:01;;;;;;;1.90;1.70;;;;;;;2.14;100.00;99327.69;87293;278;136718;-74
2024/01/26 03:39:03;;;;;;;2.20;1.30;;;;;;;2.25;100.00;99328.59;87300;271;22594;-71
2024/01/26 03:41:06;;;;;;;2.10;1.50;;;;;;;2.32;100.00;99330.55;87177;272;136662;-73
2024/01/26 03:43:07;;;;;;;1.70;1.10;;;;;;;2.35;100.00;99336.08;87269;271;25249;-73
2024/01/26 03:45:09;;;;;;;1.80;1.70;;;;;;;2.31;100.00;99338.63;87210;271;136180;-72
2024/01/26 03:47:11;;;;;;;1.70;1.50;;;;;;;2.26;100.00;99342.56;87309;270;23869;-73
2024/01/26 03:49:13;;;;;;;2.10;1.70;;;;;;;2.23;100.00;99339.29;87211;271;136019;-71
2024/01/26 03:51:15;;;;;;;3.60;2.10;;;;;;;2.20;100.00;99342.50;87358;271;25095;-72
2024/01/26 03:53:17;;;;;;;2.40;2.10;;;;;;;2.25;100.00;99343.08;87145;275;136003;-73
2024/01/26 03:55:19;;;;;;;2.00;1.70;;;;;;;2.35;100.00;99340.95;87300;271;25243;-73
2024/01/26 03:57:21;;;;;;;1.50;1.40;;;;;;;2.43;100.00;99343.16;87272;274;136671;-73
2024/01/26 03:59:23;;;;;;;1.90;1.70;;;;;;;2.43;100.00;99346.48;87277;270;22571;-72
2024/01/26 04:01:25;;;;;;;2.30;1.90;;;;;;;2.37;100.00;99346.23;87161;266;135781;-73
2024/01/26 04:03:27;;;;;;;2.10;1.80;;;;;;;2.33;100.00;99351.55;87415;266;22581;-72
2024/01/26 04:05:32;;;;;;;2.00;1.90;;;;;;;2.28;100.00;99353.11;87168;269;135793;-72
2024/01/26 04:07:34;;;;;;;3.00;2.60;;;;;;;2.23;100.00;99349.54;87196;274;22588;-71
2024/01/26 04:09:37;;;;;;;2.20;2.00;;;;;;;2.26;100.00;99355.77;87175;270;136520;-73
2024/01/26 04:11:39;;;;;;;2.10;1.70;;;;;;;2.32;100.00;99362.14;87364;273;22632;-70
2024/01/26 04:13:41;;;;;;;2.20;2.10;;;;;;;2.35;100.00;99365.66;87283;269;136677;-73
2024/01/26 04:15:44;;;;;;;3.00;2.10;;;;;;;2.41;100.00;99367.36;87273;269;22595;-72
2024/01/26 04:17:46;;;;;;;1.90;1.70;;;;;;;2.40;100.00;99367.83;87225;278;136177;-73
2024/01/26 04:19:48;;;;;;;2.50;2.20;;;;;;;2.35;100.00;99369.15;87285;270;25099;-73
2024/01/26 04:21:52;;;;;;;2.70;2.10;;;;;;;2.31;100.00;99369.27;87285;273;137563;-72
2024/01/26 04:23:53;;;;;;;1.90;1.80;;;;;;;2.24;100.00;99371.19;87429;270;22567;-74
2024/01/26 04:25:55;;;;;;;2.30;1.90;;;;;;;2.18;100.00;99375.48;87219;270;135980;-70
2024/01/26 04:27:57;;;;;;;2.30;2.10;;;;;;;2.22;100.00;99377.21;87388;273;24007;-72
2024/01/26 04:29:59;;;;;;;3.40;2.20;;;;;;;2.32;100.00;99381.30;87186;269;137427;-72
2024/01/26 04:32:01;;;;;;;2.90;2.00;;;;;;;2.40;100.00;99380.23;87386;269;25159;-71
2024/01/26 04:34:03;;;;;;;3.00;2.60;;;;;;;2.44;100.00;99380.85;87369;269;22579;-75
2024/01/26 04:36:09;;;;;;;2.60;2.30;;;;;;;2.41;100.00;99382.09;87314;266;136408;-75
2024/01/26 04:38:11;;;;;;;3.10;2.50;;;;;;;2.33;100.00;99381.30;87362;277;22785;-72
2024/01/26 04:40:14;;;;;;;3.30;1.80;;;;;;;2.31;100.00;99381.33;87197;273;136204;-73
2024/01/26 04:42:16;;;;;;;3.00;2.40;;;;;;;2.29;100.00;99385.59;87264;267;25197;-72
2024/01/26 04:44:21;;;;;;;2.70;2.20;;;;;;;2.24;100.00;99387.84;87315;271;136213;-75
2024/01/26 04:46:22;;;;;;;2.60;2.40;;;;;;;2.26;100.00;99390.64;87346;271;22644;-72
2024/01/26 04:48:24;;;;;;;2.20;2.00;;;;;;;2.34;100.00;99394.36;87199;278;137293;-73
2024/01/26 04:50:26;;;;;;;2.40;2.20;;;;;;;2.40;100.00;99392.77;87337;266;23994;-70
2024/01/26 04:52:28;;;;;;;2.50;2.40;;;;;;;2.39;100.00;99396.98;87073;263;136027;-70
2024/01/26 04:54:31;;;;;;;2.80;2.10;;;;;;;2.34;100.00;99394.06;87347;271;24071;-71
2024/01/26 04:56:33;;;;;;;1.90;1.90;;;;;;;2.27;100.00;99400.20;87224;277;137190;-71
2024/01/26 04:58:35;;;;;;;1.90;1.70;;;;;;;2.19;100.00;99405.54;87226;268;22637;-73
2024/01/26 05:00:36;;;;;;;2.00;1.90;;;;;;;2.16;100.00;99404.86;87116;273;135965;-72
2024/01/26 05:02:38;;;;;;;2.10;1.90;;;;;;;2.20;100.00;99405.98;87264;267;22523;-70
2024/01/26 05:04:40;;;;;;;1.90;1.70;;;;;;;2.27;100.00;99408.81;87236;274;136742;-71
2024/01/26 05:06:43;;;;;;;1.80;1.40;;;;;;;2.30;100.00;99405.69;87236;271;27305;-70
2024/01/26 05:08:45;;;;;;;1.60;1.30;;;;;;;2.29;100.00;99406.60;86794;278;136869;-71
2024/01/26 05:10:47;;;;;;;3.80;1.70;;;;;;;2.24;100.00;99408.16;87227;274;24075;-71
2024/01/26 05:12:49;;;;;;;1.60;1.50;;;;;;;2.16;100.00;99408.31;86997;268;135723;-71
2024/01/26 05:14:50;;;;;;;3.10;2.30;;;;;;;2.09;100.00;99415.27;87157;269;22577;-71
2024/01/26 05:16:52;;;;;;;1.80;1.70;;;;;;;2.05;100.00;99418.05;87139;271;137013;-70
2024/01/26 05:18:56;;;;;;;2.20;2.10;;;;;;;2.02;100.00;99420.11;87221;271;22539;-70
2024/01/26 05:20:58;;;;;;;2.10;1.90;;;;;;;2.08;100.00;99425.39;87188;267;136708;-71
2024/01/26 05:23:02;;;;;;;3.40;3.20;;;;;;;2.19;100.00;99422.52;87176;270;22559;-70
2024/01/26 05:25:04;;;;;;;3.00;2.70;;;;;;;2.26;100.00;99427.95;87203;271;136991;-69
2024/01/26 05:27:09;;;;;;;2.30;2.20;;;;;;;2.27;100.00;99428.05;87246;263;24793;-70
2024/01/26 05:29:11;;;;;;;2.40;2.30;;;;;;;2.22;100.00;99432.92;87220;269;136235;-71
2024/01/26 05:31:13;;;;;;;3.30;3.00;;;;;;;2.16;100.00;99433.91;87230;269;25287;-69
2024/01/26 05:33:16;;;;;;;4.20;3.60;;;;;;;2.10;100.00;99441.11;87318;270;136010;-70
2024/01/26 05:35:18;;;;;;;2.50;2.30;;;;;;;2.09;100.00;99444.45;87319;271;25083;-71
2024/01/26 05:37:19;;;;;;;3.70;3.40;;;;;;;2.05;100.00;99445.11;87182;271;135937;-72
2024/01/26 05:39:21;;;;;;;2.50;2.30;;;;;;;2.10;100.00;99449.59;87056;271;22572;-70
2024/01/26 05:41:24;;;;;;;2.70;2.40;;;;;;;2.18;100.00;99452.63;87217;271;137126;-70
2024/01/26 05:43:26;;;;;;;2.90;2.10;;;;;;;2.22;100.00;99452.05;87324;269;22563;-70
2024/01/26 05:45:28;;;;;;;2.70;2.50;;;;;;;2.21;100.00;99455.14;87210;266;136721;-69
2024/01/26 05:47:30;;;;;;;2.40;2.20;;;;;;;2.18;100.00;99456.04;87298;270;25278;-69
2024/01/26 05:49:33;;;;;;;1.90;1.80;;;;;;;2.11;100.00;99454.34;87136;277;135796;-71
2024/01/26 05:51:36;;;;;;;3.40;2.90;;;;;;;2.06;100.00;99457.19;87329;269;22549;-71
2024/01/26 05:53:38;;;;;;;2.30;2.00;;;;;;;2.02;100.00;99459.54;87217;271;136019;-75
2024/01/26 05:55:40;;;;;;;1.90;1.80;;;;;;;1.99;100.00;99468.27;87072;268;22572;-72
2024/01/26 05:57:43;;;;;;;2.80;2.50;;;;;;;2.05;100.00;99469.88;87062;262;137615;-72
2024/01/26 05:59:45;;;;;;;2.10;1.90;;;;;;;2.13;100.00;99474.48;87222;270;22558;-70
2024/01/26 06:01:46;;;;;;;1.90;1.60;;;;;;;2.18;100.00;99476.51;87010;266;136525;-71
2024/01/26 06:03:48;;;;;;;1.40;1.30;;;;;;;2.22;100.00;99479.27;87180;271;24026;-71
2024/01/26 06:05:50;;;;;;;1.70;1.60;;;;;;;2.23;100.00;99482.62;87186;270;137121;-71
2024/01/26 06:07:52;;;;;;;2.00;1.90;;;;;;;2.21;100.00;99486.89;87305;270;22590;-72
2024/01/26 06:09:54;;;;;;;2.00;1.40;;;;;;;2.19;100.00;99488.14;87170;277;136940;-73
2024/01/26 06:11:56;;;;;;;2.30;1.90;;;;;;;2.16;100.00;99490.23;87295;274;24026;-72
2024/01/26 06:13:57;;;;;;;2.20;1.50;;;;;;;2.14;100.00;99498.41;87214;270;135709;-73
2024/01/26 06:16:01;;;;;;;1.70;1.60;;;;;;;2.20;100.00;99499.07;87299;270;24149;-72
2024/01/26 06:18:03;;;;;;;1.50;1.40;;;;;;;2.26;100.00;99503.36;87155;270;25239;-72
2024/01/26 06:20:08;;;;;;;1.00;1.00;;;;;;;2.29;100.00;99506.23;87100;265;136911;-71
2024/01/26 06:22:10;;;;;;;2.40;1.60;;;;;;;2.30;100.00;99509.02;87322;265;22555;-71
2024/01/26 06:24:11;;;;;;;0.90;0.80;;;;;;;2.31;100.00;99512.65;87097;269;136228;-72
2024/01/26 06:26:13;;;;;;;2.40;1.60;;;;;;;2.22;100.00;99509.55;87204;266;22578;-73
2024/01/26 06:28:15;;;;;;;1.70;1.50;;;;;;;2.15;100.00;99512.88;87181;277;136330;-73
2024/01/26 06:30:18;;;;;;;1.10;1.10;;;;;;;2.09;100.00;99518.01;87154;275;22583;-71
2024/01/26 06:32:20;;;;;;;1.90;1.80;;;;;;;2.05;100.00;99522.27;87056;273;136780;-73
2024/01/26 06:34:22;;;;;;;1.40;1.30;;;;;;;2.09;100.00;99522.23;87210;277;26099;-72
2024/01/26 06:36:24;;;;;;;1.60;0.80;;;;;;;2.15;100.00;99523.95;87227;270;136796;-73
2024/01/26 06:38:26;;;;;;;1.20;1.20;;;;;;;2.18;100.00;99521.51;87284;270;22561;-74
2024/01/26 06:40:28;;;;;;;1.00;0.80;;;;;;;2.21;100.00;99524.38;86998;272;136947;-73
2024/01/26 06:42:32;;;;;;;0.80;0.80;;;;;;;2.21;100.00;99523.99;87278;271;23011;-72
2024/01/26 06:44:34;;;;;;;1.20;0.60;;;;;;;2.18;100.00;99527.49;87206;274;135843;-74
2024/01/26 06:46:37;;;;;;;2.00;0.60;;;;;;;2.12;100.00;99529.33;87458;266;24965;-73
2024/01/26 06:48:39;;;;;;;0.80;0.60;;;;;;;2.05;100.00;99535.95;87448;271;135738;-72
2024/01/26 06:50:41;;;;;;;1.30;1.00;;;;;;;2.03;100.00;99538.63;87538;266;24843;-70
2024/01/26 06:52:43;;;;;;;3.00;1.00;;;;;;;2.05;100.00;99540.84;87864;266;136962;-71
2024/01/26 06:54:45;;;;;;;2.90;0.90;;;;;;;2.06;100.00;99546.86;88033;270;22547;-69
2024/01/26 06:56:47;;;;;;;1.00;0.70;;;;;;;2.11;100.00;99548.69;87694;274;136844;-69
2024/01/26 06:58:48;;;;;;;0.70;0.50;;;;;;;2.20;100.00;99551.01;87468;274;25094;-68
2024/01/26 07:00:52;;;;;;;1.60;1.40;;;;;;;2.17;100.00;99555.42;87337;270;136214;-69
2024/01/26 07:02:54;;;;;;;0.90;0.90;;;;;;;2.09;100.00;99557.80;87499;278;22572;-71
2024/01/26 07:04:56;;;;;;;2.80;2.60;;;;;;;2.06;100.00;99565.83;87223;266;136006;-70
2024/01/26 07:06:59;;;;;;;1.00;1.00;;;;;;;2.06;100.00;99566.31;87243;273;25108;-71
2024/01/26 07:09:01;;;;;;;0.80;0.80;;;;;;;2.07;100.00;99565.73;87149;269;137109;-68
2024/01/26 07:11:03;;;;;;;0.60;0.60;;;;;;;2.12;100.00;99571.23;87151;273;22562;-70
2024/01/26 07:13:05;;;;;;;1.70;1.20;;;;;;;2.19;100.00;99571.97;87109;277;136991;-70
2024/01/26 07:15:09;;;;;;;1.40;1.00;;;;;;;2.22;100.00;99574.02;87195;277;25215;-70
2024/01/26 07:17:11;;;;;;;1.40;1.00;;;;;;;2.21;100.00;99574.54;87314;273;138234;-70
2024/01/26 07:19:13;;;;;;;1.30;1.10;;;;;;;2.14;100.00;99582.38;87243;266;24131;-72
2024/01/26 07:21:19;;;;;;;1.30;1.20;;;;;;;2.08;100.00;99585.10;87165;266;136361;-70
2024/01/26 07:23:21;;;;;;;1.30;1.20;;;;;;;2.04;100.00;99585.79;87304;271;22558;-71
2024/01/26 07:25:23;;;;;;;1.30;1.10;;;;;;;2.02;100.00;99588.10;87174;271;135877;-69
2024/01/26 07:27:24;;;;;;;1.10;0.70;;;;;;;2.04;100.00;99586.87;87370;271;22563;-70
2024/01/26 07:29:26;;;;;;;1.40;0.60;;;;;;;2.08;100.00;99587.17;87217;271;136725;-70
2024/01/26 07:31:28;;;;;;;2.10;0.70;;;;;;;2.12;100.00;99589.90;87250;270;25162;-71
2024/01/26 07:33:30;;;;;;;1.30;0.50;;;;;;;2.19;100.00;99592.61;87268;271;136854;-70
2024/01/26 07:35:32;;;;;;;2.10;0.50;;;;;;;2.23;100.00;99594.84;87299;271;22581;-70
2024/01/26 07:37:34;;;;;;;0.90;0.60;;;;;;;2.22;100.00;99599.73;87235;270;136211;-71
2024/01/26 07:39:36;;;;;;;0.70;0.60;;;;;;;2.19;100.00;99603.87;87290;266;26124;-70
2024/01/26 07:41:38;;;;;;;0.50;0.40;;;;;;;2.16;100.00;99601.99;87322;271;136117;-71
2024/01/26 07:43:40;;;;;;;0.60;0.60;;;;;;;2.12;100.00;99604.05;87544;278;25220;-70
2024/01/26 07:45:42;;;;;;;1.70;0.60;;;;;;;2.14;100.00;99604.43;87283;274;136167;-71
2024/01/26 07:47:46;;;;;;;1.30;0.20;;;;;;;2.19;100.00;99609.08;87355;271;22633;-71
2024/01/26 07:49:48;;;;;;;1.20;0.70;;;;;;;2.19;100.00;99610.09;87351;267;136566;-71
2024/01/26 07:51:51;;;;;;;2.50;0.80;;;;;;;2.22;100.00;99620.39;87482;267;22576;-72
2024/01/26 07:53:53;;;;;;;0.70;0.70;;;;;;;2.21;100.00;99620.98;87156;274;135856;-70
2024/01/26 07:55:55;;;;;;;0.80;0.80;;;;;;;2.14;100.00;99624.42;87310;271;22567;-71
2024/01/26 07:57:56;;;;;;;0.70;0.70;;;;;;;2.11;100.00;99623.47;87281;274;136150;-69
2024/01/26 07:59:58;;;;;;;1.80;1.10;;;;;;;2.11;100.00;99629.78;87410;278;25214;-72
2024/01/26 08:02:00;;;;;;;2.40;0.40;;;;;;;2.06;100.00;99629.23;87225;269;136413;-71
2024/01/26 08:04:02;;;;;;;0.70;0.60;;;;;;;2.02;100.00;99632.00;87008;268;22576;-73
2024/01/26 08:06:04;;;;;;;1.90;0.50;;;;;;;1.98;100.00;99637.39;87230;271;25179;-71
2024/01/26 08:08:07;;;;;;;0.40;0.40;;;;;;;1.98;100.00;99643.20;86562;271;959330;-70
2024/01/26 08:10:09;;;;;;;1.70;0.70;;;;;;;1.96;100.00;99643.93;87379;275;26017;-72
2024/01/26 08:12:12;;;;;;;1.50;1.00;;;;;;;1.93;100.00;99651.55;87210;267;137231;-72
2024/01/26 08:14:33;;;;;;;1.10;0.80;;;;;;;1.87;100.00;99652.16;87244;269;22558;-70
2024/01/26 08:16:36;;;;;;;0.60;0.50;;;;;;;1.91;100.00;99652.83;87286;271;136505;-70
2024/01/26 08:18:37;;;;;;;0.60;0.60;;;;;;;1.99;100.00;99654.87;87183;272;22601;-69
2024/01/26 08:20:41;;;;;;;1.30;0.80;;;;;;;2.02;100.00;99655.26;87414;278;136760;-68
2024/01/26 08:22:43;;;;;;;2.00;0.60;;;;;;;2.05;100.00;99656.58;87298;277;24016;-70
2024/01/26 08:24:46;;;;;;;0.60;0.60;;;;;;;2.04;100.00;99662.94;87265;270;136051;-71
2024/01/26 08:26:48;;;;;;;0.30;0.30;;;;;;;1.97;100.00;99666.80;87310;266;22577;-70
2024/01/26 08:28:50;;;;;;;0.30;0.30;;;;;;;1.94;100.00;99672.49;87257;269;136797;-69
2024/01/26 08:30:51;;;;;;;0.90;0.70;;;;;;;2.01;100.00;99671.31;87364;271;24138;-72
2024/01/26 08:32:54;;;;;;;0.80;0.80;;;;;;;2.09;100.00;99679.80;87324;266;136476;-71
2024/01/26 08:34:56;;;;;;;0.50;0.20;;;;;;;2.10;100.00;99685.52;87329;270;24740;-70
2024/01/26 08:36:58;;;;;;;1.20;0.60;;;;;;;2.03;100.00;99687.94;87171;278;136406;-70
2024/01/26 08:39:00;;;;;;;0.90;0.50;;;;;;;1.94;100.00;99688.46;87298;271;22586;-70
2024/01/26 08:41:07;;;;;;;0.60;0.60;;;;;;;1.94;100.00;99692.86;87352;269;137809;-71
2024/01/26 08:43:09;;;;;;;0.60;0.40;;;;;;;2.01;100.00;99686.54;87454;273;22558;-71
2024/01/26 08:45:11;;;;;;;0.40;0.30;;;;;;;2.10;100.00;99690.23;87339;273;139012;-71
2024/01/26 08:47:13;;;;;;;0.50;0.30;;;;;;;2.08;100.00;99690.61;87415;278;22601;-70
2024/01/26 08:49:15;;;;;;;0.80;0.30;;;;;;;2.03;100.00;99692.63;87181;269;136326;-71
2024/01/26 08:51:17;;;;;;;0.50;0.30;;;;;;;2.00;100.00;99695.45;87283;278;22558;-71
2024/01/26 08:53:19;;;;;;;0.50;0.50;;;;;;;2.01;100.00;99695.47;87271;265;136381;-70
2024/01/26 08:55:22;;;;;;;0.60;0.40;;;;;;;2.09;100.00;99696.24;87352;266;23886;-71
2024/01/26 08:57:23;;;;;;;0.60;0.30;;;;;;;2.17;100.00;99698.35;87311;270;136419;-74
2024/01/26 08:59:25;;;;;;;0.40;0.30;;;;;;;2.19;100.00;99699.36;87565;273;25252;-69
2024/01/26 09:01:27;;;;;;;0.30;0.30;;;;;;;2.17;100.00;99700.61;87192;274;137802;-73
2024/01/26 09:03:29;;;;;;;0.50;0.50;;;;;;;2.08;100.00;99696.33;87261;271;24956;-70
2024/01/26 09:05:31;;;;;;;0.30;0.30;;;;;;;2.04;100.00;99699.95;87170;273;136625;-71
2024/01/26 09:07:33;;;;;;;0.90;0.80;;;;;;;2.05;100.00;99704.50;87200;270;22569;-70
2024/01/26 09:09:35;;;;;;;1.60;0.30;;;;;;;2.04;100.00;99702.86;87174;278;137635;-71
2024/01/26 09:11:38;;;;;;;0.50;0.40;;;;;;;2.04;100.00;99706.55;87407;266;25182;-69
2024/01/26 09:13:40;;;;;;;2.70;1.60;;;;;;;2.04;100.00;99706.94;87214;268;136210;-71
2024/01/26 09:15:42;;;;;;;0.70;0.70;;;;;;;2.04;100.00;99711.54;87321;271;22655;-70
2024/01/26 09:17:44;;;;;;;0.80;0.40;;;;;;;1.99;100.00;99714.44;87358;269;135830;-70
2024/01/26 09:19:46;;;;;;;0.50;0.40;;;;;;;1.95;100.00;99720.78;87314;270;22559;-71
2024/01/26 09:21:50;;;;;;;0.60;0.60;;;;;;;1.96;100.00;99720.78;87232;266;137838;-70
2024/01/26 09:23:53;;;;;;;0.60;0.50;;;;;;;2.04;100.00;99721.46;87460;267;25247;-70
2024/01/26 09:25:55;;;;;;;0.40;0.40;;;;;;;2.07;100.00;99719.92;87198;270;136552;-72
2024/01/26 09:27:57;;;;;;;1.40;0.80;;;;;;;2.08;100.00;99725.84;87341;278;25258;-71
2024/01/26 09:30:01;;;;;;;0.30;0.30;;;;;;;2.10;100.00;99722.34;87218;273;136448;-71
2024/01/26 09:32:03;;;;;;;0.30;0.30;;;;;;;2.10;100.00;99722.48;87293;269;136488;-67
2024/01/26 09:34:06;;;;;;;0.70;0.70;;;;;;;2.10;100.00;99718.77;87364;278;24626;-71
2024/01/26 09:36:08;;;;;;;1.30;0.40;;;;;;;2.10;100.00;99718.13;87292;268;135803;-73
2024/01/26 09:38:13;;;;;;;0.40;0.40;;;;;;;2.10;100.00;99719.59;87411;270;22573;-71
2024/01/26 09:40:15;;;;;;;0.80;0.80;;;;;;;2.14;100.00;99721.52;87248;269;136848;-72